Time;durP1;ratioP1;P1;durP2;ratioP2;P2;SDS_P1;SDS_P2;PMS_P1;PMS_P2;Temp;Humidity;BMP_temperature;BMP_pressure;BME280_temperature;BME280_humidity;BME280_pressure;Samples;Min_cycle;Max_cycle;Signal;HPM_P1;HPM_P2
2021/03/09 00:01:14;;;;;;;2.43;2.23;;;19.10;19.60;;;;;;5115986;28;20188;-56
2021/03/09 00:03:39;;;;;;;2.33;2.13;;;19.10;19.60;;;;;;5118002;28;20595;-58
2021/03/09 00:06:05;;;;;;;2.40;2.20;;;19.10;19.60;;;;;;5118071;28;20206;-57
2021/03/09 00:08:30;;;;;;;2.10;1.90;;;19.10;19.60;;;;;;5099075;28;20206;-57
2021/03/09 00:10:56;;;;;;;2.07;1.87;;;19.10;19.60;;;;;;5117928;28;20160;-57
2021/03/09 00:13:24;;;;;;;2.50;2.30;;;19.10;19.60;;;;;;5117723;28;20161;-57
2021/03/09 00:15:52;;;;;;;2.63;2.42;;;19.10;19.60;;;;;;5117632;28;20208;-57
2021/03/09 00:18:18;;;;;;;2.10;1.90;;;19.10;19.60;;;;;;5116378;28;20196;-58
2021/03/09 00:20:43;;;;;;;1.90;1.70;;;19.10;19.60;;;;;;5117748;28;20153;-57
2021/03/09 00:23:12;;;;;;;2.00;1.80;;;19.00;19.60;;;;;;5117178;28;20161;-57
2021/03/09 00:25:38;;;;;;;2.20;2.00;;;19.00;19.60;;;;;;5117690;28;20157;-58
2021/03/09 00:28:03;;;;;;;1.70;1.60;;;19.00;19.60;;;;;;5117496;28;20153;-58
2021/03/09 00:30:29;;;;;;;2.50;2.30;;;19.00;19.60;;;;;;5117426;28;20192;-58
2021/03/09 00:32:55;;;;;;;2.27;2.07;;;19.00;19.60;;;;;;5117252;28;20414;-57
2021/03/09 00:35:20;;;;;;;1.93;1.83;;;19.00;19.60;;;;;;5099167;28;20683;-58
2021/03/09 00:37:46;;;;;;;2.50;2.20;;;19.00;19.60;;;;;;5117375;28;20187;-57
2021/03/09 00:40:12;;;;;;;2.37;1.73;;;19.00;19.60;;;;;;5116902;28;20190;-57
2021/03/09 00:42:41;;;;;;;2.20;2.00;;;19.00;19.60;;;;;;5117188;28;20153;-57
2021/03/09 00:45:07;;;;;;;2.72;2.53;;;19.00;19.60;;;;;;5117212;28;20399;-57
2021/03/09 00:47:33;;;;;;;2.40;2.20;;;19.00;19.60;;;;;;5117352;28;20244;-57
2021/03/09 00:49:59;;;;;;;2.43;2.10;;;18.90;19.50;;;;;;5098773;28;20385;-58
2021/03/09 00:52:27;;;;;;;2.08;1.80;;;19.00;19.60;;;;;;5117030;28;20153;-58
2021/03/09 00:54:53;;;;;;;3.67;2.25;;;19.00;19.60;;;;;;5116323;28;20181;-59
2021/03/09 00:57:19;;;;;;;2.50;2.03;;;19.00;19.60;;;;;;5117083;28;20181;-57
2021/03/09 00:59:44;;;;;;;2.17;1.97;;;18.90;19.50;;;;;;5098970;28;20604;-57
2021/03/09 01:02:10;;;;;;;2.80;2.30;;;18.90;19.50;;;;;;5116991;28;20609;-58
2021/03/09 01:04:35;;;;;;;2.20;2.00;;;18.90;19.50;;;;;;5116893;28;20154;-58
2021/03/09 01:07:01;;;;;;;2.43;2.17;;;18.90;19.50;;;;;;5116955;28;20168;-58
2021/03/09 01:09:27;;;;;;;2.80;2.10;;;18.90;19.50;;;;;;5116409;28;20157;-57
2021/03/09 01:11:52;;;;;;;2.63;2.43;;;18.90;19.50;;;;;;5115838;28;20153;-57
2021/03/09 01:14:27;;;;;;;3.57;2.20;;;18.90;20.00;;;;;;5116433;28;20166;-57
2021/03/09 01:16:53;;;;;;;1.80;1.70;;;18.90;19.50;;;;;;5116482;28;20298;-58
2021/03/09 01:19:19;;;;;;;1.80;1.70;;;18.90;19.50;;;;;;5116634;28;20192;-58
2021/03/09 01:21:45;;;;;;;2.50;2.30;;;18.90;19.50;;;;;;5116738;28;20437;-57
2021/03/09 01:24:11;;;;;;;2.00;1.80;;;18.90;19.50;;;;;;5116090;28;20181;-58
2021/03/09 01:26:36;;;;;;;2.17;2.00;;;18.90;19.50;;;;;;5116617;28;20168;-58
2021/03/09 01:29:05;;;;;;;2.40;2.20;;;18.90;19.50;;;;;;5116354;28;20402;-58
2021/03/09 01:31:33;;;;;;;1.77;1.67;;;18.90;19.50;;;;;;5116454;28;20232;-59
2021/03/09 01:33:59;;;;;;;2.00;1.90;;;18.90;19.50;;;;;;5116192;28;20632;-57
2021/03/09 01:36:27;;;;;;;2.63;2.20;;;18.90;19.50;;;;;;5116179;28;20196;-58
2021/03/09 01:38:53;;;;;;;5.00;1.90;;;18.80;19.40;;;;;;5115817;28;20160;-57
2021/03/09 01:41:19;;;;;;;2.13;1.93;;;18.80;19.50;;;;;;5116349;28;20603;-58
2021/03/09 01:43:44;;;;;;;2.17;1.97;;;18.80;19.50;;;;;;5116046;28;20890;-58
2021/03/09 01:46:11;;;;;;;2.10;2.00;;;18.80;19.60;;;;;;5116281;28;20164;-58
2021/03/09 01:48:42;;;;;;;2.50;2.30;;;18.90;19.60;;;;;;5115968;28;20154;-57
2021/03/09 01:51:08;;;;;;;1.92;1.73;;;18.80;19.60;;;;;;5116165;28;20150;-57
2021/03/09 01:53:34;;;;;;;2.58;2.13;;;18.80;19.60;;;;;;5115423;28;20508;-57
2021/03/09 01:56:00;;;;;;;2.40;2.20;;;18.80;19.60;;;;;;5115863;28;20627;-57
2021/03/09 01:58:28;;;;;;;2.73;2.23;;;18.80;19.60;;;;;;5115530;28;20216;-58
2021/03/09 02:00:54;;;;;;;1.65;1.55;;;18.80;19.60;;;;;;5131854;27;20164;-57
2021/03/09 02:03:20;;;;;;;1.77;1.67;;;18.80;19.60;;;;;;5115638;28;20165;-58
2021/03/09 02:05:46;;;;;;;1.75;1.60;;;18.80;19.60;;;;;;5115875;28;20878;-57
2021/03/09 02:08:12;;;;;;;2.30;2.10;;;18.80;19.60;;;;;;5115126;28;20159;-57
2021/03/09 02:10:38;;;;;;;2.00;1.80;;;18.80;19.70;;;;;;5115712;28;20254;-57
2021/03/09 02:13:21;;;;;;;2.13;1.93;;;18.80;19.70;;;;;;5115371;28;20248;-57
2021/03/09 02:16:11;;;;;;;2.10;1.90;;;18.80;19.70;;;;;;5109729;28;20735;-57
2021/03/09 02:18:54;;;;;;;2.20;1.98;;;18.80;19.70;;;;;;5115231;28;20240;-57
2021/03/09 02:21:41;;;;;;;1.92;1.73;;;18.80;19.70;;;;;;5115295;28;20232;-57
2021/03/09 02:24:21;;;;;;;2.00;1.60;;;18.70;19.60;;;;;;5114533;28;20232;-57
2021/03/09 02:27:08;;;;;;;1.75;1.60;;;18.70;19.70;;;;;;5115110;28;20153;-57
2021/03/09 02:29:40;;;;;;;2.10;1.90;;;18.70;19.70;;;;;;5115101;28;20149;-58
2021/03/09 02:32:15;;;;;;;1.85;1.75;;;18.70;19.70;;;;;;5115308;28;20181;-58
2021/03/09 02:34:46;;;;;;;2.15;1.95;;;18.70;19.70;;;;;;5115035;28;20631;-56
2021/03/09 02:37:15;;;;;;;1.58;1.48;;;18.70;19.70;;;;;;5115105;28;20192;-58
2021/03/09 02:39:44;;;;;;;2.10;2.00;;;18.70;20.30;;;;;;5114634;28;20161;-57
2021/03/09 02:42:15;;;;;;;2.65;2.05;;;18.70;19.80;;;;;;5115016;28;20164;-57
2021/03/09 02:44:42;;;;;;;1.70;1.60;;;18.70;19.70;;;;;;5114953;28;20168;-57
2021/03/09 02:47:13;;;;;;;2.90;1.88;;;18.70;19.80;;;;;;5114957;28;20192;-58
2021/03/09 02:49:44;;;;;;;4.72;2.05;;;18.70;19.80;;;;;;5114750;28;20238;-57
2021/03/09 02:52:16;;;;;;;1.98;1.70;;;18.70;19.80;;;;;;5114922;28;20145;-57
2021/03/09 02:54:44;;;;;;;2.00;1.90;;;18.70;19.80;;;;;;5114202;28;20149;-58
2021/03/09 02:57:15;;;;;;;2.20;2.00;;;18.70;19.80;;;;;;5114528;28;20196;-57
2021/03/09 02:59:42;;;;;;;2.05;1.85;;;18.70;19.80;;;;;;5114503;28;20149;-57
2021/03/09 03:02:09;;;;;;;2.40;2.20;;;18.70;19.80;;;;;;5114800;28;20153;-57
2021/03/09 03:04:40;;;;;;;1.60;1.50;;;18.70;19.80;;;;;;5114526;28;20605;-57
2021/03/09 03:07:09;;;;;;;2.15;1.75;;;18.70;19.90;;;;;;5114814;28;20161;-57
2021/03/09 03:09:36;;;;;;;2.65;1.55;;;18.70;19.80;;;;;;5114081;28;20149;-57
2021/03/09 03:12:02;;;;;;;2.00;1.80;;;18.70;19.80;;;;;;5114878;28;20157;-57
2021/03/09 03:14:29;;;;;;;2.20;2.00;;;18.60;19.80;;;;;;5096324;28;20180;-58
2021/03/09 03:16:55;;;;;;;1.88;1.73;;;18.70;19.80;;;;;;5114376;28;20298;-58
2021/03/09 03:19:21;;;;;;;2.10;1.77;;;18.70;19.90;;;;;;5114564;28;20197;-57
2021/03/09 03:21:48;;;;;;;1.73;1.45;;;18.70;19.90;;;;;;5114384;28;20620;-58
2021/03/09 03:24:15;;;;;;;2.60;1.85;;;16.90;18.70;;;;;;5113789;28;20157;-58
2021/03/09 03:26:44;;;;;;;2.05;1.85;;;18.60;19.80;;;;;;5114377;28;20157;-58
2021/03/09 03:29:11;;;;;;;2.15;1.95;;;18.60;19.80;;;;;;5114120;28;20246;-57
2021/03/09 03:31:37;;;;;;;1.83;1.73;;;18.60;19.80;;;;;;5114264;28;20257;-58
2021/03/09 03:34:06;;;;;;;1.50;1.37;;;18.60;19.80;;;;;;5114022;28;20251;-59
2021/03/09 03:36:36;;;;;;;1.60;1.50;;;18.60;19.80;;;;;;5113514;28;20195;-58
2021/03/09 03:39:04;;;;;;;2.40;2.20;;;18.60;19.90;;;;;;5095253;28;20157;-58
2021/03/09 03:41:30;;;;;;;2.17;2.05;;;18.60;19.80;;;;;;5114205;28;20675;-57
2021/03/09 03:43:55;;;;;;;1.83;1.67;;;18.60;20.40;;;;;;5114137;28;20232;-58
2021/03/09 03:46:21;;;;;;;1.80;1.67;;;18.60;19.90;;;;;;5114140;28;20176;-57
2021/03/09 03:48:47;;;;;;;2.17;1.97;;;18.60;19.80;;;;;;5113917;28;20169;-58
2021/03/09 03:51:15;;;;;;;2.03;1.93;;;18.60;19.90;;;;;;5114217;28;20184;-58
2021/03/09 03:54:19;;;;;;;2.40;1.73;;;18.60;19.90;;;;;;5113575;28;20403;-57
2021/03/09 03:57:06;;;;;;;2.40;1.63;;;18.60;19.90;;;;;;5070166;28;20236;-57
2021/03/09 03:59:38;;;;;;;1.55;1.45;;;18.60;19.90;;;;;;5093554;28;20146;-57
2021/03/09 04:02:06;;;;;;;1.90;1.70;;;18.60;19.90;;;;;;5093697;28;20153;-57
2021/03/09 04:04:34;;;;;;;3.05;2.20;;;18.60;19.90;;;;;;5093451;28;20158;-58
2021/03/09 04:07:01;;;;;;;2.88;2.20;;;18.60;20.50;;;;;;5093609;28;20606;-57
2021/03/09 04:09:29;;;;;;;2.42;2.22;;;18.60;20.00;;;;;;5093073;28;20252;-57
2021/03/09 04:11:57;;;;;;;2.17;1.67;;;18.60;20.00;;;;;;5093564;28;20154;-57
2021/03/09 04:14:23;;;;;;;2.05;1.92;;;18.50;19.90;;;;;;5093435;28;20158;-58
2021/03/09 04:16:52;;;;;;;2.63;2.07;;;18.50;19.90;;;;;;5093388;28;20217;-58
2021/03/09 04:19:18;;;;;;;1.92;1.83;;;18.60;20.00;;;;;;5093315;28;20150;-58
2021/03/09 04:21:45;;;;;;;2.60;2.20;;;18.50;19.90;;;;;;5093417;28;20166;-58
2021/03/09 04:24:12;;;;;;;2.03;1.88;;;18.50;20.20;;;;;;5092790;28;20157;-58
2021/03/09 04:26:40;;;;;;;2.13;1.88;;;18.60;20.00;;;;;;5093265;28;20517;-58
2021/03/09 04:29:10;;;;;;;1.90;1.60;;;18.50;20.50;;;;;;5093394;28;20173;-57
2021/03/09 04:31:38;;;;;;;2.50;1.80;;;18.50;19.90;;;;;;5093286;28;20150;-57
2021/03/09 04:34:04;;;;;;;2.05;1.85;;;18.60;20.00;;;;;;5093291;28;20606;-58
2021/03/09 04:36:33;;;;;;;1.55;1.45;;;18.50;20.50;;;;;;5093027;28;20212;-58
2021/03/09 04:39:01;;;;;;;1.80;1.70;;;18.50;20.00;;;;;;5092749;28;20601;-58
2021/03/09 04:41:26;;;;;;;2.15;1.95;;;18.50;20.00;;;;;;5093253;28;20185;-57
2021/03/09 04:43:55;;;;;;;2.00;1.80;;;18.50;20.00;;;;;;5093255;28;20180;-58
2021/03/09 04:46:22;;;;;;;1.70;1.60;;;18.50;20.00;;;;;;5093594;28;20184;-58
2021/03/09 04:48:48;;;;;;;1.70;1.50;;;18.50;20.00;;;;;;5096751;28;20154;-58
2021/03/09 04:51:18;;;;;;;2.10;1.90;;;18.50;20.00;;;;;;5096595;28;20157;-58
2021/03/09 04:53:48;;;;;;;2.20;1.90;;;18.50;20.00;;;;;;5096253;28;20147;-58
2021/03/09 04:56:13;;;;;;;3.38;1.83;;;18.50;20.00;;;;;;5111241;28;20266;-58
2021/03/09 04:58:39;;;;;;;1.80;1.70;;;18.50;20.00;;;;;;5117167;28;20656;-58
2021/03/09 05:01:05;;;;;;;1.60;1.50;;;18.50;20.00;;;;;;5117162;28;20195;-58
2021/03/09 05:03:34;;;;;;;1.73;1.63;;;18.50;20.00;;;;;;5116910;28;20751;-59
2021/03/09 05:06:00;;;;;;;1.77;1.60;;;18.50;20.00;;;;;;5116761;28;20635;-58
2021/03/09 05:08:26;;;;;;;2.03;1.83;;;18.50;20.10;;;;;;5116448;28;20169;-57
2021/03/09 05:10:53;;;;;;;2.10;1.53;;;18.50;20.00;;;;;;5116571;28;20162;-58
2021/03/09 05:13:19;;;;;;;2.00;1.75;;;18.50;20.00;;;;;;5116947;28;20377;-57
2021/03/09 05:15:45;;;;;;;1.63;1.53;;;18.40;20.00;;;;;;5116862;28;20605;-58
2021/03/09 05:18:10;;;;;;;2.17;1.97;;;18.40;20.00;;;;;;5116508;28;20196;-58
2021/03/09 05:20:37;;;;;;;1.60;1.47;;;18.50;20.60;;;;;;5116674;28;20153;-58
2021/03/09 05:23:03;;;;;;;1.95;1.67;;;18.50;20.00;;;;;;5116355;28;20179;-58
2021/03/09 05:25:28;;;;;;;2.33;2.13;;;18.40;20.00;;;;;;5116641;28;20608;-58
2021/03/09 05:27:54;;;;;;;1.93;1.73;;;18.40;20.00;;;;;;5116413;28;20165;-58
2021/03/09 05:30:21;;;;;;;1.73;1.63;;;18.40;20.00;;;;;;5116284;28;20164;-58
2021/03/09 05:32:47;;;;;;;1.60;1.50;;;18.40;20.00;;;;;;5116547;28;20161;-58
2021/03/09 05:35:14;;;;;;;2.00;1.42;;;18.40;20.00;;;;;;5116198;28;20596;-58
2021/03/09 05:37:42;;;;;;;1.45;1.35;;;18.40;20.00;;;;;;5116309;28;20200;-59
2021/03/09 05:40:08;;;;;;;1.70;1.60;;;18.50;20.10;;;;;;5115851;28;20149;-58
2021/03/09 05:42:34;;;;;;;1.70;1.60;;;18.50;20.10;;;;;;5116318;28;20194;-58
2021/03/09 05:45:02;;;;;;;2.10;1.60;;;18.40;20.00;;;;;;5116267;28;20161;-58
2021/03/09 05:47:31;;;;;;;1.95;1.50;;;18.40;20.00;;;;;;5115937;28;20795;-58
2021/03/09 05:49:59;;;;;;;2.15;1.95;;;18.40;20.00;;;;;;5115904;28;20165;-58
2021/03/09 05:52:25;;;;;;;2.22;1.80;;;18.40;20.00;;;;;;5097761;28;20165;-57
2021/03/09 05:54:51;;;;;;;1.80;1.63;;;18.40;20.00;;;;;;5115245;28;20184;-59
2021/03/09 05:57:17;;;;;;;4.30;2.03;;;18.40;20.00;;;;;;5115687;28;20979;-58
2021/03/09 05:59:43;;;;;;;1.83;1.70;;;18.40;20.00;;;;;;5115183;28;20464;-58
2021/03/09 06:02:09;;;;;;;2.03;1.88;;;18.40;20.00;;;;;;5115958;28;20165;-58
2021/03/09 06:04:35;;;;;;;1.43;1.33;;;18.40;20.00;;;;;;5115581;28;20157;-58
2021/03/09 06:07:04;;;;;;;1.80;1.60;;;18.40;20.00;;;;;;5115708;28;20161;-58
2021/03/09 06:09:32;;;;;;;2.05;1.88;;;18.40;20.00;;;;;;5115170;28;20231;-58
2021/03/09 06:12:20;;;;;;;1.98;1.88;;;18.40;20.00;;;;;;5115553;28;20160;-58
2021/03/09 06:14:51;;;;;;;2.20;2.00;;;18.40;20.00;;;;;;5115458;28;20169;-58
2021/03/09 06:17:24;;;;;;;1.50;1.40;;;18.40;20.00;;;;;;5115151;28;20345;-57
2021/03/09 06:19:50;;;;;;;1.30;1.20;;;18.40;20.00;;;;;;5115382;28;20203;-58
2021/03/09 06:22:20;;;;;;;2.73;1.77;;;18.40;20.00;;;;;;5115331;28;20185;-59
2021/03/09 06:24:47;;;;;;;1.70;1.40;;;18.40;20.00;;;;;;5114847;28;20853;-57
2021/03/09 06:27:30;;;;;;;2.90;1.80;;;18.40;20.00;;;;;;5097145;28;20256;-59
2021/03/09 06:29:57;;;;;;;1.55;1.45;;;18.40;19.90;;;;;;5115192;28;20159;-57
2021/03/09 06:32:29;;;;;;;1.98;1.85;;;18.40;19.90;;;;;;5130992;27;20190;-58
2021/03/09 06:34:55;;;;;;;2.22;1.92;;;18.50;20.00;;;;;;5114929;28;20157;-58
2021/03/09 06:37:25;;;;;;;2.03;1.90;;;18.40;19.90;;;;;;5114944;28;20230;-58
2021/03/09 06:40:06;;;;;;;1.73;1.63;;;18.50;20.00;;;;;;5114454;28;20410;-58
2021/03/09 06:42:37;;;;;;;1.80;1.70;;;18.40;19.80;;;;;;5114910;28;20149;-57
2021/03/09 06:45:15;;;;;;;1.38;1.25;;;18.40;19.80;;;;;;5114745;28;20621;-59
2021/03/09 06:47:44;;;;;;;2.13;1.92;;;18.50;19.90;;;;;;5114652;28;20602;-59
2021/03/09 06:50:15;;;;;;;1.70;1.60;;;18.40;19.80;;;;;;5114866;28;20190;-59
2021/03/09 06:52:44;;;;;;;1.45;1.25;;;18.50;19.80;;;;;;5114618;28;20240;-59
2021/03/09 06:55:13;;;;;;;1.80;1.60;;;18.50;19.80;;;;;;5114206;28;20263;-59
2021/03/09 06:57:41;;;;;;;1.65;1.55;;;18.50;19.80;;;;;;5130415;27;20226;-59
2021/03/09 07:00:11;;;;;;;1.90;1.70;;;18.50;19.70;;;;;;5114542;28;20176;-58
2021/03/09 07:02:40;;;;;;;1.60;1.50;;;18.50;19.70;;;;;;5114243;28;20179;-58
2021/03/09 07:05:08;;;;;;;1.77;1.67;;;18.50;19.70;;;;;;5114199;28;20236;-58
2021/03/09 07:07:38;;;;;;;1.80;1.58;;;18.50;19.70;;;;;;5114383;28;20164;-59
2021/03/09 07:10:08;;;;;;;2.08;1.92;;;18.50;19.70;;;;;;5112975;28;20620;-58
2021/03/09 07:12:36;;;;;;;2.75;1.60;;;18.50;19.60;;;;;;5114148;28;20177;-60
2021/03/09 07:15:05;;;;;;;7.22;6.68;;;18.60;19.60;;;;;;5083678;27;20205;-57
2021/03/09 07:17:33;;;;;;;10.88;9.88;;;18.00;14.80;;;;;;5087979;27;20220;-57
2021/03/09 07:20:00;;;;;;;12.15;11.10;;;16.30;13.70;;;;;;5109214;28;20628;-56
2021/03/09 07:22:27;;;;;;;12.15;11.05;;;14.90;14.90;;;;;;5113655;28;20189;-55
2021/03/09 07:25:03;;;;;;;12.30;11.30;;;14.10;14.80;;;;;;5111913;28;20157;-56
2021/03/09 07:27:55;;;;;;;11.63;10.55;;;13.50;15.70;;;;;;5111366;28;20160;-55
2021/03/09 07:30:24;;;;;;;9.50;8.57;;;13.10;18.10;;;;;;5105231;28;20670;-53
2021/03/09 07:32:57;;;;;;;8.52;7.72;;;13.30;20.20;;;;;;5113904;28;20260;-55
2021/03/09 07:35:25;;;;;;;9.02;7.78;;;13.70;20.70;;;;;;5110489;28;20199;-54
2021/03/09 07:37:52;;;;;;;8.32;6.55;;;14.20;20.60;;;;;;5110991;28;20193;-55
2021/03/09 07:40:29;;;;;;;10.32;8.50;;;14.50;20.40;;;;;;5112686;28;20649;-54
2021/03/09 07:42:58;;;;;;;9.25;8.25;;;14.90;20.00;;;;;;5113328;28;20189;-55
2021/03/09 07:45:44;;;;;;;8.52;7.72;;;15.20;19.50;;;;;;5109823;28;20612;-54
2021/03/09 07:48:17;;;;;;;8.00;7.35;;;15.40;19.20;;;;;;5112070;28;20532;-55
2021/03/09 07:50:45;;;;;;;7.97;7.28;;;15.70;18.90;;;;;;5112804;28;20275;-58
2021/03/09 07:53:14;;;;;;;8.88;7.68;;;15.80;18.50;;;;;;5113295;28;20184;-56
2021/03/09 07:56:09;;;;;;;9.10;7.15;;;16.00;17.90;;;;;;5110909;28;20261;-56
2021/03/09 07:58:35;;;;;;;7.75;7.05;;;14.50;16.40;;;;;;5111771;28;20212;-57
2021/03/09 08:01:11;;;;;;;9.17;8.20;;;16.30;17.30;;;;;;5091197;28;20810;-57
2021/03/09 08:03:39;;;;;;;7.32;6.65;;;16.50;17.20;;;;;;5097843;28;20433;-56
2021/03/09 08:06:08;;;;;;;7.90;6.40;;;16.60;17.10;;;;;;5126621;28;20172;-56
2021/03/09 08:08:50;;;;;;;7.47;5.85;;;16.70;17.20;;;;;;5115266;28;20156;-56
2021/03/09 08:11:24;;;;;;;7.53;5.65;;;16.90;17.20;;;;;;5131450;28;20156;-55
2021/03/09 08:14:05;;;;;;;5.68;5.00;;;17.00;17.10;;;;;;5131520;28;20195;-56
2021/03/09 08:16:35;;;;;;;6.43;5.00;;;17.10;17.40;;;;;;5087178;28;20233;-57
2021/03/09 08:19:33;;;;;;;6.38;5.07;;;17.20;17.60;;;;;;5084280;28;20177;-56
2021/03/09 08:21:58;;;;;;;5.55;5.05;;;17.30;17.70;;;;;;5072248;28;20258;-57
2021/03/09 08:24:42;;;;;;;4.60;4.13;;;17.40;17.70;;;;;;5075810;28;20261;-56
2021/03/09 08:27:27;;;;;;;6.22;3.75;;;17.50;17.90;;;;;;5074353;28;20163;-56
2021/03/09 08:29:52;;;;;;;4.53;3.45;;;17.60;17.90;;;;;;5075953;28;20169;-56
2021/03/09 08:32:28;;;;;;;8.90;4.90;;;17.60;17.90;;;;;;5055182;28;20214;-56
2021/03/09 08:35:14;;;;;;;3.88;3.50;;;17.70;17.80;;;;;;5074140;28;20170;-56
2021/03/09 08:37:45;;;;;;;4.20;3.50;;;17.80;18.10;;;;;;5074483;28;20680;-55
2021/03/09 08:40:13;;;;;;;7.15;3.63;;;17.80;18.00;;;;;;5074564;28;20245;-56
2021/03/09 08:43:01;;;;;;;5.03;2.92;;;17.90;18.20;;;;;;5074998;28;20193;-54
2021/03/09 08:45:38;;;;;;;5.72;4.30;;;17.90;18.20;;;;;;5072442;28;20570;-56
2021/03/09 08:48:05;;;;;;;5.65;3.75;;;18.00;18.40;;;;;;5074751;28;20641;-56
2021/03/09 08:50:49;;;;;;;3.50;3.20;;;18.10;18.40;;;;;;5075310;28;20173;-56
2021/03/09 08:53:32;;;;;;;4.07;3.67;;;18.10;18.40;;;;;;5074407;28;20566;-55
2021/03/09 08:56:05;;;;;;;4.00;3.53;;;18.20;18.40;;;;;;5071242;28;20249;-55
2021/03/09 08:58:33;;;;;;;3.47;3.17;;;18.20;18.10;;;;;;5074473;28;20316;-55
2021/03/09 09:00:59;;;;;;;4.63;3.75;;;18.30;18.60;;;;;;5075284;28;20556;-55
2021/03/09 09:03:36;;;;;;;3.58;3.20;;;18.30;18.50;;;;;;5074334;28;20181;-56
2021/03/09 09:06:03;;;;;;;3.40;3.10;;;18.40;18.50;;;;;;5070476;28;20158;-57
2021/03/09 09:08:32;;;;;;;3.95;2.88;;;18.40;18.60;;;;;;5073176;28;20597;-57
2021/03/09 09:10:59;;;;;;;2.63;2.42;;;18.50;18.60;;;;;;5073752;28;20518;-56
2021/03/09 09:13:32;;;;;;;3.53;3.22;;;18.50;18.50;;;;;;5075067;28;20241;-56
2021/03/09 09:15:58;;;;;;;2.90;2.53;;;18.60;18.40;;;;;;5076941;28;20240;-56
2021/03/09 09:18:24;;;;;;;2.95;2.65;;;18.70;18.50;;;;;;5090150;27;20203;-55
2021/03/09 09:20:52;;;;;;;2.47;2.30;;;18.80;18.60;;;;;;5100843;28;20189;-57
2021/03/09 09:23:19;;;;;;;3.65;2.90;;;18.80;18.40;;;;;;5096912;28;20180;-56
2021/03/09 09:26:00;;;;;;;3.88;3.47;;;18.90;18.40;;;;;;5105822;28;20177;-56
2021/03/09 09:28:33;;;;;;;3.30;3.00;;;18.90;18.40;;;;;;5113035;28;20164;-54
2021/03/09 09:31:09;;;;;;;3.30;3.00;;;19.00;18.50;;;;;;5097140;28;20173;-54
2021/03/09 09:33:34;;;;;;;3.70;3.05;;;19.00;18.40;;;;;;5113737;28;20186;-54
2021/03/09 09:36:00;;;;;;;3.73;2.50;;;19.10;18.50;;;;;;5112349;28;20263;-53
2021/03/09 09:38:26;;;;;;;2.63;2.43;;;19.10;18.40;;;;;;5112372;28;20192;-54
2021/03/09 09:40:58;;;;;;;2.80;2.60;;;19.10;18.30;;;;;;5115194;28;20475;-54
2021/03/09 09:43:33;;;;;;;3.08;2.83;;;19.20;18.30;;;;;;5114686;28;20222;-54
2021/03/09 09:46:06;;;;;;;2.92;2.72;;;19.20;18.30;;;;;;5112865;28;20214;-55
2021/03/09 09:48:36;;;;;;;3.65;2.85;;;19.20;19.00;;;;;;5114506;28;20165;-54
2021/03/09 09:51:05;;;;;;;2.97;2.70;;;19.20;18.40;;;;;;5113243;28;20198;-54
2021/03/09 09:53:38;;;;;;;3.00;2.75;;;19.30;18.50;;;;;;5109922;28;20225;-56
2021/03/09 09:56:08;;;;;;;2.95;2.67;;;19.30;18.50;;;;;;5121123;27;20176;-56
2021/03/09 09:58:57;;;;;;;3.20;2.90;;;19.30;18.50;;;;;;5115993;27;20227;-55
2021/03/09 10:01:32;;;;;;;3.05;2.60;;;19.30;18.50;;;;;;5090647;28;20207;-56
2021/03/09 10:04:06;;;;;;;3.75;2.47;;;19.40;18.60;;;;;;5128037;27;20643;-54
2021/03/09 10:06:47;;;;;;;2.92;2.60;;;19.40;18.50;;;;;;5105152;27;20156;-57
2021/03/09 10:09:21;;;;;;;4.95;2.80;;;19.40;18.40;;;;;;5113382;28;20631;-56
2021/03/09 10:12:00;;;;;;;5.35;2.67;;;19.40;18.40;;;;;;5111362;28;20638;-55
2021/03/09 10:14:32;;;;;;;2.80;2.58;;;19.50;18.40;;;;;;5096211;28;20161;-56
2021/03/09 10:16:58;;;;;;;2.60;2.40;;;19.50;18.50;;;;;;5111171;28;20208;-55
2021/03/09 10:19:34;;;;;;;2.70;2.30;;;19.50;18.40;;;;;;5113426;28;20524;-55
2021/03/09 10:21:59;;;;;;;4.13;2.75;;;19.50;18.50;;;;;;5113167;28;20172;-56
2021/03/09 10:24:33;;;;;;;4.37;2.87;;;19.60;18.60;;;;;;5112271;28;20177;-55
2021/03/09 10:27:00;;;;;;;2.63;2.42;;;19.60;18.30;;;;;;5111393;28;20679;-56
2021/03/09 10:29:32;;;;;;;6.20;3.08;;;19.60;19.00;;;;;;5113256;28;20278;-55
2021/03/09 10:32:04;;;;;;;3.00;2.70;;;19.70;18.60;;;;;;5113550;28;20169;-55
2021/03/09 10:34:38;;;;;;;2.65;2.45;;;19.70;18.50;;;;;;5111893;28;20177;-54
2021/03/09 10:37:04;;;;;;;4.32;2.83;;;19.70;18.50;;;;;;5111609;28;20197;-57
2021/03/09 10:39:33;;;;;;;2.83;2.40;;;19.70;18.40;;;;;;5112814;28;20160;-55
2021/03/09 10:42:32;;;;;;;3.38;3.00;;;19.70;18.50;;;;;;5113075;28;20169;-55
2021/03/09 10:45:20;;;;;;;3.08;2.78;;;19.80;18.60;;;;;;5109790;28;20161;-56
2021/03/09 10:47:51;;;;;;;2.67;2.47;;;19.80;18.50;;;;;;5113082;28;20149;-56
2021/03/09 10:50:22;;;;;;;3.28;2.97;;;19.90;18.40;;;;;;5112758;28;20247;-57
2021/03/09 10:52:50;;;;;;;6.20;2.35;;;19.80;18.40;;;;;;5112736;28;20161;-55
2021/03/09 10:55:17;;;;;;;3.67;2.70;;;19.90;18.50;;;;;;5113402;27;20294;-55
2021/03/09 10:57:43;;;;;;;4.20;2.90;;;19.90;18.40;;;;;;5113292;28;20271;-54
2021/03/09 11:00:15;;;;;;;2.50;2.35;;;19.90;18.60;;;;;;5113323;28;20161;-55
2021/03/09 11:02:47;;;;;;;3.20;2.30;;;20.00;18.60;;;;;;5113408;28;20157;-55
2021/03/09 11:05:13;;;;;;;2.90;2.60;;;20.00;18.50;;;;;;5072023;28;20215;-54
2021/03/09 11:07:39;;;;;;;2.60;2.40;;;20.00;18.60;;;;;;5090726;28;20245;-54
2021/03/09 11:10:07;;;;;;;3.27;2.97;;;20.00;18.50;;;;;;5092066;28;20613;-56
2021/03/09 11:12:36;;;;;;;2.75;2.40;;;20.00;18.50;;;;;;5111426;28;20389;-54
2021/03/09 11:15:03;;;;;;;2.60;2.40;;;20.00;18.50;;;;;;5110731;28;20536;-54
2021/03/09 11:17:29;;;;;;;3.55;3.22;;;20.10;18.70;;;;;;5110003;28;20357;-54
2021/03/09 11:19:54;;;;;;;3.73;3.10;;;20.10;18.70;;;;;;5112674;28;20680;-55
2021/03/09 11:22:20;;;;;;;3.83;2.40;;;20.10;18.70;;;;;;5113256;28;20165;-53
2021/03/09 11:24:46;;;;;;;3.00;2.70;;;20.10;18.70;;;;;;5106137;28;20302;-55
2021/03/09 11:27:12;;;;;;;2.90;2.70;;;20.10;18.70;;;;;;5114429;27;20181;-54
2021/03/09 11:29:38;;;;;;;3.10;2.77;;;20.10;18.60;;;;;;5110845;28;20187;-55
2021/03/09 11:32:07;;;;;;;3.33;3.00;;;20.10;18.60;;;;;;5112603;28;20397;-55
2021/03/09 11:34:33;;;;;;;3.20;2.90;;;20.10;18.70;;;;;;5111759;28;20264;-55
2021/03/09 11:36:59;;;;;;;2.30;2.10;;;20.10;18.70;;;;;;5111028;28;20189;-54
2021/03/09 11:39:25;;;;;;;3.08;2.78;;;20.10;18.70;;;;;;5092654;28;20171;-54
2021/03/09 11:41:52;;;;;;;2.90;2.60;;;20.20;18.80;;;;;;5112323;28;20269;-56
2021/03/09 11:44:19;;;;;;;4.60;2.85;;;20.20;18.80;;;;;;5113008;28;20189;-55
2021/03/09 11:46:45;;;;;;;2.60;2.40;;;20.20;18.90;;;;;;5109796;28;20180;-54
2021/03/09 11:49:10;;;;;;;2.70;2.50;;;20.20;18.80;;;;;;5093581;28;20173;-56
2021/03/09 11:51:38;;;;;;;5.47;3.47;;;20.20;18.80;;;;;;5110333;28;20169;-57
2021/03/09 11:54:04;;;;;;;5.20;2.60;;;20.20;18.40;;;;;;5111833;28;20164;-56
2021/03/09 11:56:30;;;;;;;8.52;2.88;;;20.20;19.00;;;;;;5092490;28;20176;-55
2021/03/09 11:58:56;;;;;;;2.50;2.30;;;20.30;19.00;;;;;;5117195;28;20520;-56
2021/03/09 12:01:22;;;;;;;3.10;2.80;;;20.30;19.00;;;;;;5114842;28;20260;-58
2021/03/09 12:03:47;;;;;;;2.40;2.20;;;20.30;18.90;;;;;;5115455;28;20169;-56
2021/03/09 12:06:14;;;;;;;2.73;2.53;;;20.30;18.90;;;;;;5114339;28;20157;-55
2021/03/09 12:08:40;;;;;;;5.70;2.92;;;20.30;18.80;;;;;;5115877;28;20170;-57
2021/03/09 12:11:06;;;;;;;3.87;2.50;;;20.30;18.90;;;;;;5115984;28;20181;-54
2021/03/09 12:13:34;;;;;;;7.70;3.43;;;20.40;18.90;;;;;;5114188;28;20173;-58
2021/03/09 12:15:59;;;;;;;4.50;2.67;;;20.40;19.50;;;;;;5112502;28;20519;-55
2021/03/09 12:18:25;;;;;;;3.03;2.80;;;20.40;18.80;;;;;;5114974;28;20224;-55
2021/03/09 12:20:51;;;;;;;4.10;2.73;;;20.40;18.90;;;;;;5116558;28;20161;-54
2021/03/09 12:23:17;;;;;;;2.80;2.57;;;20.40;19.00;;;;;;5113686;28;20196;-54
2021/03/09 12:25:42;;;;;;;3.90;2.97;;;20.40;18.90;;;;;;5112989;28;20175;-54
2021/03/09 12:28:08;;;;;;;3.37;2.50;;;20.50;19.00;;;;;;5098098;28;20501;-55
2021/03/09 12:30:34;;;;;;;6.13;2.50;;;20.50;19.00;;;;;;5115863;28;20169;-54
2021/03/09 12:33:00;;;;;;;3.73;2.67;;;20.50;19.00;;;;;;5115460;28;20517;-54
2021/03/09 12:35:26;;;;;;;4.40;3.03;;;20.50;19.00;;;;;;5111833;28;20393;-55
2021/03/09 12:37:52;;;;;;;5.03;3.05;;;20.50;19.10;;;;;;5115175;28;20488;-54
2021/03/09 12:40:18;;;;;;;2.97;2.70;;;20.50;19.00;;;;;;5116123;28;20153;-54
2021/03/09 12:42:43;;;;;;;4.07;3.05;;;20.50;19.00;;;;;;5116073;28;20165;-54
2021/03/09 12:45:10;;;;;;;6.43;3.07;;;20.60;19.10;;;;;;5111726;28;20681;-56
2021/03/09 12:47:36;;;;;;;3.30;2.58;;;20.60;19.00;;;;;;5115800;28;20165;-54
2021/03/09 12:50:03;;;;;;;5.20;2.97;;;20.60;19.10;;;;;;5116173;28;20492;-55
2021/03/09 12:52:29;;;;;;;2.83;2.50;;;20.60;19.10;;;;;;5115743;28;20621;-55
2021/03/09 12:54:54;;;;;;;3.57;2.97;;;20.60;19.10;;;;;;5117420;27;20722;-54
2021/03/09 12:57:20;;;;;;;4.50;3.00;;;20.70;19.10;;;;;;5132768;27;20543;-55